Time,TemperatureF,DewpointF,PressureIn,WindDirection,WindDirectionDegrees,WindSpeedMPH,WindSpeedGustMPH,Humidity,HourlyPrecipIn,Conditions,Clouds,dailyrainin,SoftwareType,DateUTC
2013-01-09 00:13:00,39.4,37.0,29.92,WSW,238,3.0,4.0,92,0.00,,,0.00,weatherlink.com 1.10,2013-01-09 00:13:00,
2013-01-09 00:28:00,39.2,37.0,29.92,SW,233,1.0,4.0,91,0.00,,,0.00,weatherlink.com 1.10,2013-01-09 00:28:00,
2013-01-09 00:44:00,39.0,37.0,29.92,West,270,1.0,5.0,91,0.00,,,0.00,weatherlink.com 1.10,2013-01-09 00:44:00,
2013-01-09 00:59:00,38.7,36.0,29.92,WNW,294,0.0,3.0,91,0.00,,,0.00,weatherlink.com 1.10,2013-01-09 00:59:00,
2013-01-09 01:14:00,38.5,36.0,29.92,WNW,284,0.0,3.0,91,0.00,,,0.00,weatherlink.com 1.10,2013-01-09 01:14:00,
2013-01-09 01:29:00,38.2,36.0,29.92,WNW,291,0.0,3.0,90,0.00,,,0.00,weatherlink.com 1.10,2013-01-09 01:29:00,
2013-01-09 01:44:00,37.9,35.0,29.91,NW,314,0.0,2.0,90,0.00,,,0.00,weatherlink.com 1.10,2013-01-09 01:44:00,
2013-01-09 01:59:00,37.6,35.0,29.92,NNW,333,0.0,3.0,91,0.00,,,0.00,weatherlink.com 1.10,2013-01-09 01:59:00,
2013-01-09 02:14:00,37.4,35.0,29.92,West,277,2.0,2.0,91,0.00,,,0.00,weatherlink.com 1.10,2013-01-09 02:14:00,
2013-01-09 02:29:00,37.3,35.0,29.91,SW,225,0.0,4.0,91,0.00,,,0.00,weatherlink.com 1.10,2013-01-09 02:29:00,
2013-01-09 02:44:00,37.4,35.0,29.91,WNW,294,2.0,3.0,91,0.00,,,0.00,weatherlink.com 1.10,2013-01-09 02:44:00,
2013-01-09 02:59:00,37.5,35.0,29.91,WNW,288,1.0,3.0,90,0.00,,,0.00,weatherlink.com 1.10,2013-01-09 02:59:00,
2013-01-09 03:14:00,37.5,35.0,29.91,WNW,300,0.0,3.0,90,0.00,,,0.00,weatherlink.com 1.10,2013-01-09 03:14:00,
2013-01-09 03:28:00,37.4,35.0,29.91,WNW,296,0.0,4.0,90,0.00,,,0.00,weatherlink.com 1.10,2013-01-09 03:28:00,
2013-01-09 03:43:00,36.2,34.0,29.91,West,281,1.0,3.0,90,0.00,,,0.00,weatherlink.com 1.10,2013-01-09 03:43:00,
2013-01-09 03:58:00,-999.0,-99.9,29.91,North,-999,-999.0,-999.0,-999,0.00,,,0.00,weatherlink.com 1.10,2013-01-09 03:58:00,
2013-01-09 04:14:00,-999.0,-99.9,29.91,North,-999,-999.0,-999.0,-999,0.00,,,0.00,weatherlink.com 1.10,2013-01-09 04:14:00,
2013-01-09 04:29:00,-999.0,-99.9,29.91,North,-999,-999.0,-999.0,-999,0.00,,,0.00,weatherlink.com 1.10,2013-01-09 04:29:00,
2013-01-09 04:49:00,-999.0,-99.9,29.91,North,-999,-999.0,-999.0,-999,0.00,,,0.00,weatherlink.com 1.10,2013-01-09 04:49:00,
2013-01-09 04:59:00,-999.0,-99.9,29.91,North,-999,-999.0,-999.0,-999,0.00,,,0.00,weatherlink.com 1.10,2013-01-09 04:59:00,
2013-01-09 05:14:00,-999.0,-99.9,29.90,North,-999,-999.0,-999.0,-999,0.00,,,0.00,weatherlink.com 1.10,2013-01-09 05:14:00,
2013-01-09 05:29:00,-999.0,-99.9,29.90,North,-999,-999.0,-999.0,-999,0.00,,,0.00,weatherlink.com 1.10,2013-01-09 05:29:00,
2013-01-09 05:44:00,-999.0,-99.9,29.90,North,-999,-999.0,-999.0,-999,0.00,,,0.00,weatherlink.com 1.10,2013-01-09 05:44:00,
2013-01-09 05:59:00,-999.0,-99.9,29.90,North,-999,-999.0,-999.0,-999,0.00,,,0.00,weatherlink.com 1.10,2013-01-09 05:59:00,
2013-01-09 06:14:00,-999.0,-99.9,29.90,North,-999,-999.0,-999.0,-999,0.00,,,0.00,weatherlink.com 1.10,2013-01-09 06:14:00,
2013-01-09 06:29:00,-999.0,-99.9,29.90,North,-999,-999.0,-999.0,-999,0.00,,,0.00,weatherlink.com 1.10,2013-01-09 06:29:00,
2013-01-09 06:44:00,-999.0,-99.9,29.90,North,-999,-999.0,-999.0,-999,0.00,,,0.00,weatherlink.com 1.10,2013-01-09 06:44:00,
2013-01-09 06:59:00,-999.0,-99.9,29.90,North,-999,-999.0,-999.0,-999,0.00,,,0.00,weatherlink.com 1.10,2013-01-09 06:59:00,
2013-01-09 07:15:00,-999.0,-99.9,29.90,North,-999,-999.0,-999.0,-999,0.00,,,0.00,weatherlink.com 1.10,2013-01-09 07:15:00,
2013-01-09 07:30:00,-999.0,-99.9,29.90,North,-999,-999.0,-999.0,-999,0.00,,,0.00,weatherlink.com 1.10,2013-01-09 07:30:00,
2013-01-09 07:45:00,-999.0,-99.9,29.90,North,-999,-999.0,-999.0,-999,0.00,,,0.00,weatherlink.com 1.10,2013-01-09 07:45:00,
2013-01-09 08:00:00,-999.0,-99.9,29.90,North,-999,-999.0,-999.0,-999,0.00,,,0.00,weatherlink.com 1.10,2013-01-09 08:00:00,
2013-01-09 08:15:00,-999.0,-99.9,29.91,North,-999,-999.0,-999.0,-999,0.00,,,0.00,weatherlink.com 1.10,2013-01-09 08:15:00,
2013-01-09 08:30:00,-999.0,-99.9,29.91,North,-999,-999.0,-999.0,-999,0.00,,,0.00,weatherlink.com 1.10,2013-01-09 08:30:00,
2013-01-09 08:45:00,-999.0,-99.9,29.91,North,-999,-999.0,-999.0,-999,0.00,,,0.00,weatherlink.com 1.10,2013-01-09 08:45:00,
2013-01-09 09:00:00,-999.0,-99.9,29.91,North,-999,-999.0,-999.0,-999,0.00,,,0.00,weatherlink.com 1.10,2013-01-09 09:00:00,
2013-01-09 09:15:00,37.0,34.0,29.90,SW,229,0.0,4.0,87,0.00,,,0.00,weatherlink.com 1.10,2013-01-09 09:15:00,
2013-01-09 09:30:00,37.4,34.0,29.90,West,271,3.0,4.0,86,0.00,,,0.00,weatherlink.com 1.10,2013-01-09 09:30:00,
2013-01-09 09:45:00,37.8,34.0,29.89,West,266,2.0,4.0,85,0.00,,,0.00,weatherlink.com 1.10,2013-01-09 09:45:00,
2013-01-09 10:15:00,39.3,35.0,29.89,NNW,330,0.0,2.0,84,0.00,,,0.00,weatherlink.com 1.10,2013-01-09 10:15:00,
2013-01-09 10:30:00,40.7,36.0,29.89,NNW,330,1.0,3.0,82,0.00,,,0.00,weatherlink.com 1.10,2013-01-09 10:30:00,
2013-01-09 10:45:00,42.2,36.0,29.89,WSW,253,1.0,2.0,80,0.00,,,0.00,weatherlink.com 1.10,2013-01-09 10:45:00,
2013-01-09 11:01:00,42.4,37.0,29.89,WNW,302,0.0,2.0,80,0.00,,,0.00,weatherlink.com 1.10,2013-01-09 11:01:00,
2013-01-09 11:16:00,43.6,38.0,29.88,NNW,327,0.0,1.0,79,0.00,,,0.00,weatherlink.com 1.10,2013-01-09 11:16:00,
2013-01-09 11:31:00,44.2,37.0,29.87,North,11,0.0,1.0,77,0.00,,,0.00,weatherlink.com 1.10,2013-01-09 11:31:00,
2013-01-09 11:46:00,46.5,38.0,29.87,North,11,0.0,0.0,72,0.00,,,0.00,weatherlink.com 1.10,2013-01-09 11:46:00,
2013-01-09 12:01:00,47.1,37.0,29.86,ENE,75,0.0,0.0,69,0.00,,,0.00,weatherlink.com 1.10,2013-01-09 12:01:00,
2013-01-09 12:16:00,46.6,37.0,29.86,ESE,104,0.0,0.0,69,0.00,,,0.00,weatherlink.com 1.10,2013-01-09 12:16:00,
2013-01-09 12:31:00,47.9,40.0,29.85,ESE,107,1.0,2.0,74,0.00,,,0.00,weatherlink.com 1.10,2013-01-09 12:31:00,
2013-01-09 12:46:00,51.2,42.0,29.84,East,82,1.0,3.0,70,0.00,,,0.00,weatherlink.com 1.10,2013-01-09 12:46:00,
2013-01-09 13:01:00,53.2,38.0,29.84,ENE,69,1.0,5.0,57,0.00,,,0.00,weatherlink.com 1.10,2013-01-09 13:01:00,
2013-01-09 13:16:00,45.8,38.0,29.84,ESE,122,4.0,5.0,73,0.00,,,0.00,weatherlink.com 1.10,2013-01-09 13:16:00,
2013-01-09 13:31:00,45.3,38.0,29.84,ESE,110,2.0,4.0,76,0.00,,,0.00,weatherlink.com 1.10,2013-01-09 13:31:00,
2013-01-09 13:46:00,44.8,38.0,29.83,SE,134,1.0,4.0,76,0.00,,,0.00,weatherlink.com 1.10,2013-01-09 13:46:00,
2013-01-09 14:01:00,44.8,38.0,29.83,East,82,0.0,3.0,77,0.00,,,0.00,weatherlink.com 1.10,2013-01-09 14:01:00,
2013-01-09 14:16:00,45.8,39.0,29.83,East,96,1.0,2.0,76,0.00,,,0.00,weatherlink.com 1.10,2013-01-09 14:16:00,
2013-01-09 14:31:00,45.8,38.0,29.82,ENE,58,1.0,3.0,75,0.00,,,0.00,weatherlink.com 1.10,2013-01-09 14:31:00,
2013-01-09 14:46:00,45.2,38.0,29.82,SE,145,0.0,1.0,76,0.00,,,0.00,weatherlink.com 1.10,2013-01-09 14:46:00,
2013-01-09 15:01:00,45.4,38.0,29.82,SE,131,0.0,0.0,75,0.00,,,0.00,weatherlink.com 1.10,2013-01-09 15:01:00,
2013-01-09 15:16:00,45.5,38.0,29.82,WNW,299,2.0,2.0,76,0.00,,,0.00,weatherlink.com 1.10,2013-01-09 15:16:00,
2013-01-09 15:31:00,44.5,38.0,29.82,NNW,342,1.0,3.0,77,0.00,,,0.00,weatherlink.com 1.10,2013-01-09 15:31:00,
2013-01-09 15:46:00,43.9,38.0,29.82,NNE,30,1.0,2.0,79,0.00,,,0.00,weatherlink.com 1.10,2013-01-09 15:46:00,
2013-01-09 16:01:00,43.3,38.0,29.82,NE,36,0.0,3.0,82,0.00,,,0.00,weatherlink.com 1.10,2013-01-09 16:01:00,
2013-01-09 16:16:00,43.0,38.0,29.81,ENE,69,1.0,2.0,82,0.00,,,0.00,weatherlink.com 1.10,2013-01-09 16:16:00,
2013-01-09 16:31:00,42.4,37.0,29.82,SW,221,3.0,4.0,80,0.00,,,0.00,weatherlink.com 1.10,2013-01-09 16:31:00,
2013-01-09 16:46:00,39.6,36.0,29.82,SW,221,0.0,4.0,85,0.00,,,0.00,weatherlink.com 1.10,2013-01-09 16:46:00,
2013-01-09 17:01:00,38.7,35.0,29.82,SW,219,2.0,3.0,87,0.00,,,0.00,weatherlink.com 1.10,2013-01-09 17:01:00,
2013-01-09 17:16:00,38.0,35.0,29.82,WSW,243,1.0,2.0,88,0.00,,,0.00,weatherlink.com 1.10,2013-01-09 17:16:00,
2013-01-09 17:31:00,37.3,34.0,29.81,SW,236,1.0,4.0,87,0.00,,,0.00,weatherlink.com 1.10,2013-01-09 17:31:00,
2013-01-09 17:46:00,37.1,33.0,29.81,West,266,2.0,2.0,86,0.00,,,0.00,weatherlink.com 1.10,2013-01-09 17:46:00,
2013-01-09 18:01:00,37.1,33.0,29.81,WNW,302,1.0,3.0,86,0.00,,,0.00,weatherlink.com 1.10,2013-01-09 18:01:00,
2013-01-09 18:16:00,36.8,33.0,29.81,WNW,288,1.0,2.0,86,0.00,,,0.00,weatherlink.com 1.10,2013-01-09 18:16:00,
2013-01-09 18:31:00,36.4,33.0,29.81,SSW,207,0.0,4.0,87,0.00,,,0.00,weatherlink.com 1.10,2013-01-09 18:31:00,
2013-01-09 18:46:00,36.2,33.0,29.80,West,263,0.0,3.0,87,0.00,,,0.00,weatherlink.com 1.10,2013-01-09 18:46:00,
2013-01-09 19:16:00,36.1,33.0,29.80,WSW,250,2.0,4.0,88,0.00,,,0.00,weatherlink.com 1.10,2013-01-09 19:16:00,
2013-01-09 19:31:00,36.0,33.0,29.80,West,276,3.0,3.0,88,0.00,,,0.00,weatherlink.com 1.10,2013-01-09 19:31:00,
2013-01-09 19:46:00,36.0,33.0,29.80,SW,215,3.0,4.0,88,0.00,,,0.00,weatherlink.com 1.10,2013-01-09 19:46:00,
2013-01-09 20:02:00,36.3,33.0,29.79,SSW,210,1.0,5.0,89,0.00,,,0.00,weatherlink.com 1.10,2013-01-09 20:02:00,
2013-01-09 20:17:00,36.1,33.0,29.78,WSW,238,2.0,3.0,89,0.00,,,0.00,weatherlink.com 1.10,2013-01-09 20:17:00,
2013-01-09 20:32:00,36.2,33.0,29.78,WSW,253,1.0,2.0,89,0.00,,,0.00,weatherlink.com 1.10,2013-01-09 20:32:00,
2013-01-09 20:47:00,35.5,32.0,29.78,SSW,208,2.0,4.0,88,0.00,,,0.00,weatherlink.com 1.10,2013-01-09 20:47:00,
2013-01-09 21:02:00,35.0,32.0,29.77,SSW,204,1.0,4.0,88,0.00,,,0.00,weatherlink.com 1.10,2013-01-09 21:02:00,
2013-01-09 21:17:00,34.9,32.0,29.76,South,186,0.0,2.0,88,0.00,,,0.00,weatherlink.com 1.10,2013-01-09 21:17:00,
2013-01-09 21:32:00,34.6,31.0,29.76,West,281,1.0,3.0,88,0.00,,,0.00,weatherlink.com 1.10,2013-01-09 21:32:00,
2013-01-09 21:47:00,34.6,31.0,29.76,NW,304,0.0,1.0,88,0.00,,,0.00,weatherlink.com 1.10,2013-01-09 21:47:00,
2013-01-09 22:02:00,35.7,33.0,29.75,ENE,73,0.0,1.0,89,0.00,,,0.00,weatherlink.com 1.10,2013-01-09 22:02:00,
2013-01-09 22:17:00,35.4,32.0,29.75,SE,132,0.0,2.0,87,0.00,,,0.00,weatherlink.com 1.10,2013-01-09 22:17:00,
2013-01-09 22:32:00,34.6,32.0,29.74,SE,133,0.0,0.0,90,0.00,,,0.00,weatherlink.com 1.10,2013-01-09 22:32:00,
2013-01-09 22:58:00,33.6,31.0,29.74,SW,217,0.0,1.0,90,0.00,,,0.00,weatherlink.com 1.10,2013-01-09 22:58:00,
2013-01-09 23:17:00,35.0,33.0,29.74,SW,229,0.0,1.0,92,0.00,,,0.00,weatherlink.com 1.10,2013-01-09 23:17:00,
2013-01-09 23:32:00,35.8,33.0,29.73,SW,229,0.0,1.0,90,0.00,,,0.00,weatherlink.com 1.10,2013-01-09 23:32:00,
2013-01-09 23:47:00,36.7,34.0,29.73,SW,229,0.0,1.0,89,0.00,,,0.00,weatherlink.com 1.10,2013-01-09 23:47:00,